AirNav   Everest Fuels
 
 636 users online  

25FL Connell's Wahoo Airport
Bushnell, Florida, USA

GOING TO BUSHNELL?


FAA INFORMATION EFFECTIVE 10 SEPTEMBER 2020

Location

FAA Identifier: 25FL
Lat/Long: 28-37-55.0000N 082-09-28.0000W
28-37.916667N 082-09.466667W
28.6319444,-82.1577778
(estimated)
Elevation: 65 ft. / 20 m (estimated)
From city: 3 miles NE of BUSHNELL, FL
Time zone: UTC -4 (UTC -5 during Standard Time)
Zip code: 33513

Airport Operations

Airport use: Private use. Permission required prior to landing
Activation date: 03/2004
Control tower: no
ARTCC: MIAMI CENTER
FSS: SAINT PETERSBURG FLIGHT SERVICE STATION
Attendance: UNATNDD
Wind indicator: yes
Segmented circle: no

Airport Communications

WX AWOS-3 at INF (13 nm NW): 119.975 (352-560-6012)
WX ASOS at BKV (18 nm SW): 134.725 (352-799-5881)

Nearby radio navigation aids

VOR radial/distance  VOR name  Freq  Var
OCFr174/32.9OCALA VORTAC113.7000E
LALr348/39.5LAKELAND VORTAC116.0001E

Airport Services

Runway Information

Runway 4/22

Dimensions: 3000 x 100 ft. / 914 x 30 m
Surface: turf
RUNWAY 4  RUNWAY 22
Traffic pattern: leftleft

Airport Ownership and Management from official FAA records

Ownership: Privately-owned
Owner: JAMES L. CONNELL
8400 CR 614A
BUSHNELL, FL 33513
Phone 352-457-1838
Manager: PATRICIA ANN CONNELL
8400 CR 614A
BUSHNELL, FL 33513
Phone 352-457-1808

Airport Operational Statistics

Aircraft based on the field: 3
Single engine airplanes: 3
    

Additional Remarks

FOR CD CTC TAMPA APCH AT 813-878-2528

Instrument Procedures

There are no published instrument procedures at 25FL.

Some nearby airports with instrument procedures:

KINF - Inverness Airport (13 nm NW)
KBKV - Brooksville-Tampa Bay Regional Airport (18 nm SW)
KLEE - Leesburg International Airport (22 nm NE)
KZPH - Zephyrhills Municipal Airport (24 nm S)
KCGC - Crystal River Airport-Captain Tom Davis Field (26 nm NW)
 
Loc | Ops | Rwys | IFR | FBO | Links
Com | Nav | Svcs | Stats | Notes


 
Area around 25FL (Connell's Wahoo Airport)
 
Road maps at: MapQuest Bing Google
 
Aerial photo
No photo
 
Sectional chart

 
Airport distance calculator
Flying to Connell's Wahoo Airport? Find the distance to fly.

From to 25FL

Sunrise and sunset
Times for 22-Sep-2020
 Local
(UTC-4)
 Zulu
(UTC)
Morning civil twilight06:5510:55
Sunrise07:1911:19
Sunset19:2423:24
Evening civil twilight19:4723:47

Current date and time
Zulu (UTC)  22-Sep-2020 05:08:05
Local (UTC-4)  22-Sep-2020 01:08:05
 
METAR
KINF 
13nm NW 
220455Z AUTO 00000KT 10SM CLR 21/21 A3011 RMK AO2
KBKV 
18nm SW 
220453Z AUTO 02006KT 10SM CLR 22/19 A3010 RMK AO2 SLP189 T02170194 403060217
KLEE 
21nm NE 
220453Z AUTO 04009KT 10SM CLR 22/20 A3010 RMK AO2 SLP192 T02220200 403060217
KZPH 
24nm S 
220455Z AUTO 36005KT 10SM CLR 21/20 A3009 RMK A02 T02130199
KCGC 
26nm NW 
220455Z AUTO 04004KT 10SM CLR 21/18 A3011 RMK AO2
TAF
KLEE 
21nm NE 
211745Z 2118/2218 06015G27KT P6SM FEW045 SCT060 FM220000 05011KT P6SM FEW050 FM221400 06014G20KT P6SM SCT045
NOTAMs
Click for the latest NOTAMs
NOTAMs are issued by the DoD/FAA and will open in a separate window not controlled by AirNav.

 

 
 

Would you like to see your business listed on this page?

 If your business provides an interesting product or service to pilots, flight crews, aircraft, or users of the Connell's Wahoo Airport, you should consider listing it here.  To start the listing process, click on the button below
 
Add a business
 

Other Pages about Connell's Wahoo Airport

Update a link
 
Copyright © AirNav, LLC. All rights reserved. Privacy Policy  Contact